Augusta State Airport Augusta US
ICAO: KAUG
IATA: AUG
Category: Medium
Scheduled Services: Yes

Elevation: 352 ft
TransAlt. 18000 ft.

Airport Communications:
PORTLAND APP/DEP:128.35
ASOS:118.325
CLNC DEL:119.95
BANGOR RDO:122.6
CTAF/UNICOM:123

KAUG Zoom In..

Runways:

(A) RW 08 length 2703 ft width 75 ft
---- / hdg 80

(B) RW 17 length 5001 ft width 100 ft
ILS 108.70 / hdg 171

(C) RW 26 length 2703 ft width 75 ft
---- / hdg 260

(D) RW 35 length 5001 ft width 100 ft
---- / hdg 351

Location; KAUG
Day. 23 / Time. 03.39 Zulu
* Altimeter: 30.23
* Temperature: 21° c. 69.8°f.
* Wind from: 150° Speed 03 kn.
Dewpoint: 20° c.
Visibility: 2 Statute Miles.
Clouds: Overcast 200 ft.
Conditions: Mist.

KAUG 230339Z AUTO 15003KT 2SM BR OVC002 21/20 A3023 RMK AO2 RAB0259E14 P0000 T02060200


Wind From 150°
Speed 03 kn.

 
 
jpsmedia.com for Web Design worldairports.se 2018   terms of use